TimeMST,TemperatureF,Dew PointF,Humidity,Sea Level PressureIn,VisibilityMPH,Wind Direction,Wind SpeedMPH,Gust SpeedMPH,PrecipitationIn,Events,Conditions,WindDirDegrees,DateUTC
12:53 AM,27.0,14.0,58,30.08,10.0,West,11.5,-,N/A,,Clear,270,2014-01-19 07:53:00
1:53 AM,28.0,14.0,56,30.07,10.0,WNW,9.2,-,N/A,,Clear,290,2014-01-19 08:53:00
2:53 AM,26.1,14.0,60,30.06,10.0,WNW,9.2,-,N/A,,Clear,290,2014-01-19 09:53:00
3:53 AM,27.0,15.1,61,30.04,10.0,West,12.7,-,N/A,,Clear,260,2014-01-19 10:53:00
4:53 AM,27.0,16.0,63,30.05,10.0,West,11.5,-,N/A,,Clear,260,2014-01-19 11:53:00
5:53 AM,32.0,17.1,54,30.02,10.0,West,13.8,-,N/A,,Clear,280,2014-01-19 12:53:00
6:53 AM,28.0,17.1,63,30.05,10.0,West,11.5,-,N/A,,Clear,260,2014-01-19 13:53:00
7:53 AM,32.0,17.1,54,30.04,10.0,WNW,10.4,-,N/A,,Clear,290,2014-01-19 14:53:00
8:53 AM,41.0,18.0,40,30.02,10.0,West,12.7,-,N/A,,Clear,280,2014-01-19 15:53:00
9:53 AM,53.1,21.0,29,30.00,10.0,WNW,15.0,24.2,N/A,,Clear,300,2014-01-19 16:53:00
10:53 AM,60.1,17.1,19,29.98,10.0,NW,26.5,33.4,N/A,,Clear,320,2014-01-19 17:53:00
11:53 AM,61.0,17.1,18,29.95,10.0,WNW,21.9,26.5,N/A,,Clear,300,2014-01-19 18:53:00
12:53 PM,64.0,15.1,15,29.91,10.0,NW,21.9,27.6,N/A,,Clear,320,2014-01-19 19:53:00
1:53 PM,64.9,12.9,13,29.88,10.0,NW,17.3,-,N/A,,Clear,320,2014-01-19 20:53:00
2:53 PM,64.9,9.0,11,29.90,10.0,NNW,13.8,-,N/A,,Clear,340,2014-01-19 21:53:00
3:53 PM,63.0,9.0,12,29.89,10.0,WNW,8.1,-,N/A,,Clear,300,2014-01-19 22:53:00
4:53 PM,55.9,9.0,15,29.91,10.0,West,4.6,-,N/A,,Clear,270,2014-01-19 23:53:00
5:53 PM,46.0,9.0,22,29.92,10.0,SW,4.6,-,N/A,,Clear,230,2014-01-20 00:53:00
6:53 PM,32.0,8.1,37,29.98,10.0,NNE,5.8,-,N/A,,Clear,20,2014-01-20 01:53:00
7:53 PM,34.0,10.0,37,29.98,10.0,NW,4.6,-,N/A,,Clear,310,2014-01-20 02:53:00
8:53 PM,39.9,12.9,33,29.95,10.0,WNW,6.9,-,N/A,,Unknown,300,2014-01-20 03:53:00
9:53 PM,37.9,12.9,36,29.94,10.0,Calm,Calm,-,N/A,,Clear,0,2014-01-20 04:53:00
10:53 PM,39.0,12.9,34,29.92,10.0,NW,10.4,-,N/A,,Clear,310,2014-01-20 05:53:00
11:53 PM,32.0,12.9,45,29.94,10.0,North,-9999.0,-,N/A,,Clear,0,2014-01-20 06:53:00